Главная страница
METAR-TAF:

METAR-TAF

Аэропорты :

Каракас, Венесуэла

широта: 10-36N, долгота: 066-59W, высота над уровнем моря: 43 м

Текущие метеонаблюдения

Эта сводка был подготовлена 11 минут назад, в 12:00 UTC
Штиль
Температура 24°C
Влажность 78%
Давление 1011 hPa
Видимость 10 км и более
небольшая облачность на высоте 1600 фута

METAR: SVMI 211200Z 00000KT 9999 FEW016 24/20 Q1011 NOSIG

Время: 08:11 (12:11 UTC)

Прогноз

Эта сводка был подготовлена 2 часа и 11 минут назад, в 10:00 UTC
Прогноз действительный с 21-го 12 UTC до 22-го 12 UTC
Ветер 10 Узел от восточный
Видимость 10 км и более
Отдельные облака на высоте 1600 фута
изменения
С 21-го 12 UTC до 21-го 16 UTC
Ветер 10 Узел от северо-северо-восточный

TAF: SVMI 211000Z 2112/2212 09010KT 9999 SCT016 TX33/19Z TN24/09Z BECMG 2112/2116 02010KT

Метеонаблюдения и прогнозы для более 4000 аэропортов (сводки METAR и TAF).

Имеющиеся станции представлены на карте желтыми и красными точками.

Чтобы увидеть название станции, наведите на нее мышь.

Затем щелкните, чтобы увидеть метеонаблюдения и метеопрогнозы.

Управление картой: чтобы увеличить масштаб, щелкните зеленые кнопки с черным крестиком; чтобы уменьшить масштаб, щелкните зеленую кнопку с тире; для просмотра соседних карт щелкайте зеленые стрелки.


METAR-TAF: